sensor_id;sensor_type;location;lat;lon;timestamp;pressure;altitude;pressure_sealevel;temperature;humidity
74613;BME280;63119;51.788;8.824;2023-10-09T00:01:25;100438.19;;;14.13;89.07
74613;BME280;63119;51.788;8.824;2023-10-09T00:03:51;100434.69;;;14.13;88.52
74613;BME280;63119;51.788;8.824;2023-10-09T00:06:21;100439.88;;;14.14;88.58
74613;BME280;63119;51.788;8.824;2023-10-09T00:08:49;100448.81;;;14.13;88.75
74613;BME280;63119;51.788;8.824;2023-10-09T00:11:19;100436.22;;;14.04;88.58
74613;BME280;63119;51.788;8.824;2023-10-09T00:13:46;100439.91;;;13.91;89.92
74613;BME280;63119;51.788;8.824;2023-10-09T00:16:17;100430.63;;;13.96;89.40
74613;BME280;63119;51.788;8.824;2023-10-09T00:18:47;100427.00;;;13.97;88.23
74613;BME280;63119;51.788;8.824;2023-10-09T00:21:17;100423.59;;;13.95;88.78
74613;BME280;63119;51.788;8.824;2023-10-09T00:23:46;100415.56;;;13.84;89.45
74613;BME280;63119;51.788;8.824;2023-10-09T00:26:17;100415.00;;;13.68;91.41
74613;BME280;63119;51.788;8.824;2023-10-09T00:28:43;100409.00;;;13.77;90.11
74613;BME280;63119;51.788;8.824;2023-10-09T00:31:09;100394.59;;;13.68;90.74
74613;BME280;63119;51.788;8.824;2023-10-09T00:33:44;100375.34;;;13.65;90.45
74613;BME280;63119;51.788;8.824;2023-10-09T00:36:10;100379.25;;;13.72;90.63
74613;BME280;63119;51.788;8.824;2023-10-09T00:38:38;100387.97;;;13.74;90.37
74613;BME280;63119;51.788;8.824;2023-10-09T00:41:11;100390.28;;;13.79;90.24
74613;BME280;63119;51.788;8.824;2023-10-09T00:43:44;100393.44;;;13.84;90.64
74613;BME280;63119;51.788;8.824;2023-10-09T00:46:10;100389.59;;;13.88;90.45
74613;BME280;63119;51.788;8.824;2023-10-09T00:49:07;100389.69;;;13.86;89.56
74613;BME280;63119;51.788;8.824;2023-10-09T00:51:35;100390.56;;;13.87;89.72
74613;BME280;63119;51.788;8.824;2023-10-09T00:54:07;100386.81;;;13.89;90.05
74613;BME280;63119;51.788;8.824;2023-10-09T00:56:33;100386.72;;;13.91;90.34
74613;BME280;63119;51.788;8.824;2023-10-09T00:59:13;100386.59;;;13.92;89.71
74613;BME280;63119;51.788;8.824;2023-10-09T01:01:40;100369.75;;;13.81;91.35
74613;BME280;63119;51.788;8.824;2023-10-09T01:04:10;100373.94;;;13.72;92.14
74613;BME280;63119;51.788;8.824;2023-10-09T01:06:41;100379.19;;;13.85;90.82
74613;BME280;63119;51.788;8.824;2023-10-09T01:09:14;100369.75;;;13.81;90.23
74613;BME280;63119;51.788;8.824;2023-10-09T01:11:43;100365.25;;;13.70;91.24
74613;BME280;63119;51.788;8.824;2023-10-09T01:14:28;100361.47;;;13.61;92.42
74613;BME280;63119;51.788;8.824;2023-10-09T01:16:53;100346.41;;;13.49;93.46
74613;BME280;63119;51.788;8.824;2023-10-09T01:19:20;100331.91;;;13.53;93.42
74613;BME280;63119;51.788;8.824;2023-10-09T01:21:51;100322.41;;;13.38;93.88
74613;BME280;63119;51.788;8.824;2023-10-09T01:24:17;100321.09;;;13.44;94.16
74613;BME280;63119;51.788;8.824;2023-10-09T01:26:45;100317.50;;;13.45;92.79
74613;BME280;63119;51.788;8.824;2023-10-09T01:29:19;100324.41;;;13.47;92.44
74613;BME280;63119;51.788;8.824;2023-10-09T01:31:46;100332.75;;;13.54;91.77
74613;BME280;63119;51.788;8.824;2023-10-09T01:34:25;100334.25;;;13.58;92.00
74613;BME280;63119;51.788;8.824;2023-10-09T01:37:21;100339.34;;;13.61;91.69
74613;BME280;63119;51.788;8.824;2023-10-09T01:39:46;100349.97;;;13.61;91.60
74613;BME280;63119;51.788;8.824;2023-10-09T01:42:13;100355.28;;;13.61;91.69
74613;BME280;63119;51.788;8.824;2023-10-09T01:44:48;100365.47;;;13.67;92.36
74613;BME280;63119;51.788;8.824;2023-10-09T01:47:14;100359.06;;;13.69;92.12
74613;BME280;63119;51.788;8.824;2023-10-09T01:49:42;100347.56;;;13.69;91.78
74613;BME280;63119;51.788;8.824;2023-10-09T01:52:08;100352.22;;;13.54;93.21
74613;BME280;63119;51.788;8.824;2023-10-09T01:54:41;100359.13;;;13.57;93.02
74613;BME280;63119;51.788;8.824;2023-10-09T01:57:08;100365.69;;;13.64;93.12
74613;BME280;63119;51.788;8.824;2023-10-09T01:59:37;100357.59;;;13.65;93.17
74613;BME280;63119;51.788;8.824;2023-10-09T02:02:06;100354.97;;;13.53;94.66
74613;BME280;63119;51.788;8.824;2023-10-09T02:04:40;100346.56;;;13.59;93.81
74613;BME280;63119;51.788;8.824;2023-10-09T02:07:06;100353.81;;;13.57;94.10
74613;BME280;63119;51.788;8.824;2023-10-09T02:09:34;100361.06;;;13.55;94.74
74613;BME280;63119;51.788;8.824;2023-10-09T02:12:00;100356.50;;;13.68;93.67
74613;BME280;63119;51.788;8.824;2023-10-09T02:14:26;100349.28;;;13.70;93.88
74613;BME280;63119;51.788;8.824;2023-10-09T02:16:52;100346.50;;;13.48;96.10
74613;BME280;63119;51.788;8.824;2023-10-09T02:19:34;100342.63;;;13.64;94.88
74613;BME280;63119;51.788;8.824;2023-10-09T02:22:02;100345.63;;;13.71;94.64
74613;BME280;63119;51.788;8.824;2023-10-09T02:24:39;100356.03;;;13.74;94.59
74613;BME280;63119;51.788;8.824;2023-10-09T02:27:14;100338.03;;;13.66;95.11
74613;BME280;63119;51.788;8.824;2023-10-09T02:29:48;100327.47;;;13.65;95.73
74613;BME280;63119;51.788;8.824;2023-10-09T02:32:13;100339.72;;;13.67;95.73
74613;BME280;63119;51.788;8.824;2023-10-09T02:34:51;100347.34;;;13.72;95.58
74613;BME280;63119;51.788;8.824;2023-10-09T02:37:18;100343.50;;;13.76;95.21
74613;BME280;63119;51.788;8.824;2023-10-09T02:39:49;100343.88;;;13.83;95.28
74613;BME280;63119;51.788;8.824;2023-10-09T02:42:17;100332.88;;;13.87;95.38
74613;BME280;63119;51.788;8.824;2023-10-09T02:44:48;100319.72;;;13.86;96.36
74613;BME280;63119;51.788;8.824;2023-10-09T02:47:17;100313.78;;;13.93;96.47
74613;BME280;63119;51.788;8.824;2023-10-09T02:49:46;100317.47;;;14.03;96.58
74613;BME280;63119;51.788;8.824;2023-10-09T02:52:13;100321.09;;;14.13;98.77
74613;BME280;63119;51.788;8.824;2023-10-09T02:54:43;100307.34;;;14.31;98.38
74613;BME280;63119;51.788;8.824;2023-10-09T02:57:11;100307.50;;;14.40;97.40
74613;BME280;63119;51.788;8.824;2023-10-09T02:59:46;100298.28;;;14.44;97.07
74613;BME280;63119;51.788;8.824;2023-10-09T03:02:12;100310.78;;;14.44;97.51
74613;BME280;63119;51.788;8.824;2023-10-09T03:04:38;100311.25;;;14.49;96.94
74613;BME280;63119;51.788;8.824;2023-10-09T03:07:04;100314.38;;;14.54;97.77
74613;BME280;63119;51.788;8.824;2023-10-09T03:09:29;100313.03;;;14.59;97.66
74613;BME280;63119;51.788;8.824;2023-10-09T03:12:01;100315.59;;;14.61;97.74
74613;BME280;63119;51.788;8.824;2023-10-09T03:14:36;100319.97;;;14.62;98.04
74613;BME280;63119;51.788;8.824;2023-10-09T03:17:03;100313.66;;;14.63;97.63
74613;BME280;63119;51.788;8.824;2023-10-09T03:19:29;100308.31;;;14.63;98.34
74613;BME280;63119;51.788;8.824;2023-10-09T03:21:55;100304.09;;;14.60;99.46
74613;BME280;63119;51.788;8.824;2023-10-09T03:24:25;100303.00;;;14.63;99.53
74613;BME280;63119;51.788;8.824;2023-10-09T03:26:52;100291.38;;;14.64;99.27
74613;BME280;63119;51.788;8.824;2023-10-09T03:29:21;100299.13;;;14.67;98.28
74613;BME280;63119;51.788;8.824;2023-10-09T03:31:47;100300.94;;;14.66;98.41
74613;BME280;63119;51.788;8.824;2023-10-09T03:34:15;100291.63;;;14.61;98.76
74613;BME280;63119;51.788;8.824;2023-10-09T03:36:41;100287.53;;;14.68;98.53
74613;BME280;63119;51.788;8.824;2023-10-09T03:39:08;100282.91;;;14.70;98.02
74613;BME280;63119;51.788;8.824;2023-10-09T03:41:50;100281.44;;;14.66;98.50
74613;BME280;63119;51.788;8.824;2023-10-09T03:44:15;100281.34;;;14.67;98.47
74613;BME280;63119;51.788;8.824;2023-10-09T03:46:46;100265.47;;;14.66;98.70
74613;BME280;63119;51.788;8.824;2023-10-09T03:49:12;100273.97;;;14.71;98.57
74613;BME280;63119;51.788;8.824;2023-10-09T03:51:39;100271.66;;;14.66;98.81
74613;BME280;63119;51.788;8.824;2023-10-09T03:54:05;100264.88;;;14.62;99.44
74613;BME280;63119;51.788;8.824;2023-10-09T03:56:35;100254.94;;;14.64;99.69
74613;BME280;63119;51.788;8.824;2023-10-09T03:59:01;100254.56;;;14.69;99.35
74613;BME280;63119;51.788;8.824;2023-10-09T04:01:29;100248.28;;;14.70;99.11
74613;BME280;63119;51.788;8.824;2023-10-09T04:03:54;100250.94;;;14.70;99.13
74613;BME280;63119;51.788;8.824;2023-10-09T04:06:21;100257.22;;;14.69;99.21
74613;BME280;63119;51.788;8.824;2023-10-09T04:08:47;100258.47;;;14.65;99.14
74613;BME280;63119;51.788;8.824;2023-10-09T04:11:14;100262.69;;;14.56;99.91
74613;BME280;63119;51.788;8.824;2023-10-09T04:13:44;100264.03;;;14.62;98.88
74613;BME280;63119;51.788;8.824;2023-10-09T04:16:11;100256.03;;;14.51;100.00
74613;BME280;63119;51.788;8.824;2023-10-09T04:18:55;100252.88;;;14.57;98.51
74613;BME280;63119;51.788;8.824;2023-10-09T04:21:26;100246.25;;;14.51;98.78
74613;BME280;63119;51.788;8.824;2023-10-09T04:24:05;100238.53;;;14.37;100.00
74613;BME280;63119;51.788;8.824;2023-10-09T04:26:37;100241.56;;;14.44;100.00
74613;BME280;63119;51.788;8.824;2023-10-09T04:29:05;100236.56;;;14.39;99.10
74613;BME280;63119;51.788;8.824;2023-10-09T04:31:31;100237.66;;;14.37;99.84
74613;BME280;63119;51.788;8.824;2023-10-09T04:34:00;100234.16;;;14.36;98.76
74613;BME280;63119;51.788;8.824;2023-10-09T04:36:47;100220.00;;;14.36;97.77
74613;BME280;63119;51.788;8.824;2023-10-09T04:39:14;100227.34;;;14.32;97.77
74613;BME280;63119;51.788;8.824;2023-10-09T04:41:59;100223.66;;;14.35;97.63
74613;BME280;63119;51.788;8.824;2023-10-09T04:44:45;100218.44;;;14.33;97.83
74613;BME280;63119;51.788;8.824;2023-10-09T04:47:30;100221.69;;;14.37;97.64
74613;BME280;63119;51.788;8.824;2023-10-09T04:50:07;100231.50;;;14.36;97.69
74613;BME280;63119;51.788;8.824;2023-10-09T04:52:40;100237.66;;;14.37;98.01
74613;BME280;63119;51.788;8.824;2023-10-09T04:55:07;100233.06;;;14.39;97.68
74613;BME280;63119;51.788;8.824;2023-10-09T04:57:41;100233.91;;;14.39;97.61
74613;BME280;63119;51.788;8.824;2023-10-09T05:00:14;100233.81;;;14.41;97.93
74613;BME280;63119;51.788;8.824;2023-10-09T05:02:57;100232.69;;;14.21;100.00
74613;BME280;63119;51.788;8.824;2023-10-09T05:05:25;100234.28;;;14.35;100.00
74613;BME280;63119;51.788;8.824;2023-10-09T05:08:03;100224.81;;;14.42;99.13
74613;BME280;63119;51.788;8.824;2023-10-09T05:10:51;100235.97;;;14.36;100.00
74613;BME280;63119;51.788;8.824;2023-10-09T05:13:22;100232.72;;;14.43;99.45
74613;BME280;63119;51.788;8.824;2023-10-09T05:16:11;100236.22;;;14.44;99.19
74613;BME280;63119;51.788;8.824;2023-10-09T05:18:58;100239.59;;;14.46;99.38
74613;BME280;63119;51.788;8.824;2023-10-09T05:21:35;100245.63;;;14.48;99.45
74613;BME280;63119;51.788;8.824;2023-10-09T05:24:10;100250.97;;;14.48;100.00
74613;BME280;63119;51.788;8.824;2023-10-09T05:26:39;100262.13;;;14.53;99.52
74613;BME280;63119;51.788;8.824;2023-10-09T05:29:20;100272.78;;;14.53;99.44
74613;BME280;63119;51.788;8.824;2023-10-09T05:31:58;100276.16;;;14.55;99.18
74613;BME280;63119;51.788;8.824;2023-10-09T05:34:44;100277.59;;;14.59;99.26
74613;BME280;63119;51.788;8.824;2023-10-09T05:37:32;100273.25;;;14.58;99.14
74613;BME280;63119;51.788;8.824;2023-10-09T05:40:00;100277.84;;;14.56;99.95
74613;BME280;63119;51.788;8.824;2023-10-09T05:42:29;100290.91;;;14.59;99.30
74613;BME280;63119;51.788;8.824;2023-10-09T05:45:14;100280.88;;;14.51;100.00
74613;BME280;63119;51.788;8.824;2023-10-09T05:47:44;100284.72;;;14.47;100.00
74613;BME280;63119;51.788;8.824;2023-10-09T05:50:28;100269.25;;;14.52;100.00
74613;BME280;63119;51.788;8.824;2023-10-09T05:52:55;100284.38;;;14.52;100.00
74613;BME280;63119;51.788;8.824;2023-10-09T05:55:23;100292.84;;;14.57;100.00
74613;BME280;63119;51.788;8.824;2023-10-09T05:57:55;100280.38;;;14.57;100.00
74613;BME280;63119;51.788;8.824;2023-10-09T06:00:22;100288.25;;;14.59;100.00
74613;BME280;63119;51.788;8.824;2023-10-09T06:03:05;100287.25;;;14.60;100.00
74613;BME280;63119;51.788;8.824;2023-10-09T06:05:57;100294.28;;;14.61;100.00
74613;BME280;63119;51.788;8.824;2023-10-09T06:08:23;100289.34;;;14.67;100.00
74613;BME280;63119;51.788;8.824;2023-10-09T06:10:55;100296.59;;;14.65;100.00
74613;BME280;63119;51.788;8.824;2023-10-09T06:13:39;100297.53;;;14.75;100.00
74613;BME280;63119;51.788;8.824;2023-10-09T06:16:11;100306.41;;;14.76;100.00
74613;BME280;63119;51.788;8.824;2023-10-09T06:19:00;100308.56;;;14.82;100.00
74613;BME280;63119;51.788;8.824;2023-10-09T06:21:38;100311.59;;;14.89;99.86
74613;BME280;63119;51.788;8.824;2023-10-09T06:24:22;100305.88;;;14.93;99.30
74613;BME280;63119;51.788;8.824;2023-10-09T06:27:06;100307.56;;;14.94;100.00
74613;BME280;63119;51.788;8.824;2023-10-09T06:29:31;100311.94;;;14.95;100.00
74613;BME280;63119;51.788;8.824;2023-10-09T06:32:03;100305.88;;;14.93;100.00
74613;BME280;63119;51.788;8.824;2023-10-09T06:34:50;100315.56;;;14.94;100.00
74613;BME280;63119;51.788;8.824;2023-10-09T06:37:44;100330.81;;;15.03;100.00
74613;BME280;63119;51.788;8.824;2023-10-09T06:40:35;100324.53;;;15.04;100.00
74613;BME280;63119;51.788;8.824;2023-10-09T06:43:20;100318.56;;;15.12;99.88
74613;BME280;63119;51.788;8.824;2023-10-09T06:45:50;100316.75;;;15.12;100.00
74613;BME280;63119;51.788;8.824;2023-10-09T06:48:34;100320.97;;;15.15;100.00
74613;BME280;63119;51.788;8.824;2023-10-09T06:51:06;100330.31;;;15.09;100.00
74613;BME280;63119;51.788;8.824;2023-10-09T06:53:47;100334.81;;;15.09;100.00
74613;BME280;63119;51.788;8.824;2023-10-09T06:56:19;100337.81;;;15.15;100.00
74613;BME280;63119;51.788;8.824;2023-10-09T06:58:51;100334.66;;;15.21;100.00
74613;BME280;63119;51.788;8.824;2023-10-09T07:01:20;100348.69;;;15.23;100.00
74613;BME280;63119;51.788;8.824;2023-10-09T07:03:56;100354.63;;;15.27;100.00
74613;BME280;63119;51.788;8.824;2023-10-09T07:06:40;100357.91;;;15.30;100.00
74613;BME280;63119;51.788;8.824;2023-10-09T07:09:05;100357.91;;;15.30;100.00
74613;BME280;63119;51.788;8.824;2023-10-09T07:11:45;100351.50;;;15.22;100.00
74613;BME280;63119;51.788;8.824;2023-10-09T07:14:23;100360.34;;;15.22;100.00
74613;BME280;63119;51.788;8.824;2023-10-09T07:17:01;100348.09;;;15.31;100.00
74613;BME280;63119;51.788;8.824;2023-10-09T07:19:46;100349.66;;;15.33;100.00
74613;BME280;63119;51.788;8.824;2023-10-09T07:22:13;100347.59;;;15.37;100.00
74613;BME280;63119;51.788;8.824;2023-10-09T07:24:45;100344.19;;;15.35;100.00
74613;BME280;63119;51.788;8.824;2023-10-09T07:27:16;100343.22;;;15.36;100.00
74613;BME280;63119;51.788;8.824;2023-10-09T07:29:42;100350.72;;;15.42;100.00
74613;BME280;63119;51.788;8.824;2023-10-09T07:32:17;100338.22;;;15.43;100.00
74613;BME280;63119;51.788;8.824;2023-10-09T07:34:49;100344.53;;;15.53;100.00
74613;BME280;63119;51.788;8.824;2023-10-09T07:37:26;100331.31;;;15.51;100.00
74613;BME280;63119;51.788;8.824;2023-10-09T07:40:02;100328.66;;;15.51;100.00
74613;BME280;63119;51.788;8.824;2023-10-09T07:42:32;100327.03;;;15.60;100.00
74613;BME280;63119;51.788;8.824;2023-10-09T07:45:10;100330.19;;;15.65;100.00
74613;BME280;63119;51.788;8.824;2023-10-09T07:47:48;100325.81;;;15.64;100.00
74613;BME280;63119;51.788;8.824;2023-10-09T07:50:35;100327.72;;;15.73;100.00
74613;BME280;63119;51.788;8.824;2023-10-09T07:53:09;100326.94;;;15.82;100.00
74613;BME280;63119;51.788;8.824;2023-10-09T07:55:40;100342.59;;;15.87;100.00
74613;BME280;63119;51.788;8.824;2023-10-09T07:58:13;100343.63;;;15.95;100.00
74613;BME280;63119;51.788;8.824;2023-10-09T08:00:39;100351.81;;;16.03;100.00
74613;BME280;63119;51.788;8.824;2023-10-09T08:03:22;100352.94;;;16.01;100.00
74613;BME280;63119;51.788;8.824;2023-10-09T08:05:51;100353.25;;;16.07;100.00
74613;BME280;63119;51.788;8.824;2023-10-09T08:08:31;100350.94;;;16.14;100.00
74613;BME280;63119;51.788;8.824;2023-10-09T08:10:59;100345.84;;;16.11;100.00
74613;BME280;63119;51.788;8.824;2023-10-09T08:13:43;100354.56;;;16.13;100.00
74613;BME280;63119;51.788;8.824;2023-10-09T08:16:15;100326.41;;;16.09;99.95
74613;BME280;63119;51.788;8.824;2023-10-09T08:18:47;100319.25;;;16.09;100.00
74613;BME280;63119;51.788;8.824;2023-10-09T08:21:16;100325.78;;;16.16;100.00
74613;BME280;63119;51.788;8.824;2023-10-09T08:23:41;100347.59;;;16.21;100.00
74613;BME280;63119;51.788;8.824;2023-10-09T08:26:17;100350.84;;;16.25;100.00
74613;BME280;63119;51.788;8.824;2023-10-09T08:28:56;100338.34;;;16.25;99.30
74613;BME280;63119;51.788;8.824;2023-10-09T08:31:43;100341.59;;;16.29;99.58
74613;BME280;63119;51.788;8.824;2023-10-09T08:34:13;100329.22;;;16.28;98.66
74613;BME280;63119;51.788;8.824;2023-10-09T08:36:54;100334.03;;;16.34;98.70
74613;BME280;63119;51.788;8.824;2023-10-09T08:39:20;100329.66;;;16.33;98.60
74613;BME280;63119;51.788;8.824;2023-10-09T08:41:53;100325.34;;;16.41;98.21
74613;BME280;63119;51.788;8.824;2023-10-09T08:44:20;100348.09;;;16.36;98.52
74613;BME280;63119;51.788;8.824;2023-10-09T08:46:49;100362.72;;;16.32;99.33
74613;BME280;63119;51.788;8.824;2023-10-09T08:49:16;100341.91;;;16.35;98.89
74613;BME280;63119;51.788;8.824;2023-10-09T08:51:42;100337.13;;;16.39;97.95
74613;BME280;63119;51.788;8.824;2023-10-09T08:54:08;100338.25;;;16.36;98.58
74613;BME280;63119;51.788;8.824;2023-10-09T08:56:36;100347.75;;;16.29;99.48
74613;BME280;63119;51.788;8.824;2023-10-09T08:59:04;100351.16;;;16.31;99.63
74613;BME280;63119;51.788;8.824;2023-10-09T09:01:30;100353.06;;;16.40;99.08
74613;BME280;63119;51.788;8.824;2023-10-09T09:03:57;100345.16;;;16.39;99.08
74613;BME280;63119;51.788;8.824;2023-10-09T09:06:23;100349.84;;;16.47;98.52
74613;BME280;63119;51.788;8.824;2023-10-09T09:08:49;100346.97;;;16.38;99.82
74613;BME280;63119;51.788;8.824;2023-10-09T09:11:20;100344.03;;;16.41;100.00
74613;BME280;63119;51.788;8.824;2023-10-09T09:16:25;100339.38;;;16.55;99.12
74613;BME280;63119;51.788;8.824;2023-10-09T09:18:57;100325.03;;;16.56;98.78
74613;BME280;63119;51.788;8.824;2023-10-09T09:21:48;100344.94;;;16.52;99.04
74613;BME280;63119;51.788;8.824;2023-10-09T09:24:15;100343.47;;;16.59;99.99
74613;BME280;63119;51.788;8.824;2023-10-09T09:26:49;100343.91;;;16.64;98.98
74613;BME280;63119;51.788;8.824;2023-10-09T09:29:24;100340.69;;;16.70;99.03
74613;BME280;63119;51.788;8.824;2023-10-09T09:32:03;100334.38;;;16.71;99.23
74613;BME280;63119;51.788;8.824;2023-10-09T09:34:52;100336.31;;;16.69;98.73
74613;BME280;63119;51.788;8.824;2023-10-09T09:37:24;100330.72;;;16.72;98.94
74613;BME280;63119;51.788;8.824;2023-10-09T09:40:00;100323.16;;;16.77;98.48
74613;BME280;63119;51.788;8.824;2023-10-09T09:42:27;100328.81;;;16.83;97.61
74613;BME280;63119;51.788;8.824;2023-10-09T09:44:53;100323.22;;;16.96;97.26
74613;BME280;63119;51.788;8.824;2023-10-09T09:47:21;100315.75;;;17.00;97.50
74613;BME280;63119;51.788;8.824;2023-10-09T09:49:52;100311.56;;;17.07;97.13
74613;BME280;63119;51.788;8.824;2023-10-09T09:52:18;100316.34;;;17.03;97.64
74613;BME280;63119;51.788;8.824;2023-10-09T09:54:44;100311.44;;;17.08;96.61
74613;BME280;63119;51.788;8.824;2023-10-09T09:57:13;100299.47;;;17.12;95.62
74613;BME280;63119;51.788;8.824;2023-10-09T09:59:40;100300.88;;;17.16;95.64
74613;BME280;63119;51.788;8.824;2023-10-09T10:02:07;100289.06;;;17.19;95.89
74613;BME280;63119;51.788;8.824;2023-10-09T10:04:38;100287.91;;;17.12;96.39
74613;BME280;63119;51.788;8.824;2023-10-09T10:07:08;100289.91;;;17.19;96.42
74613;BME280;63119;51.788;8.824;2023-10-09T10:09:42;100273.88;;;17.19;95.57
74613;BME280;63119;51.788;8.824;2023-10-09T10:12:11;100284.00;;;17.25;95.08
74613;BME280;63119;51.788;8.824;2023-10-09T10:14:55;100278.78;;;17.24;95.60
74613;BME280;63119;51.788;8.824;2023-10-09T10:20:26;100271.63;;;17.24;95.40
74613;BME280;63119;51.788;8.824;2023-10-09T10:23:18;100276.69;;;17.27;94.91
74613;BME280;63119;51.788;8.824;2023-10-09T10:25:44;100274.59;;;17.31;94.81
74613;BME280;63119;51.788;8.824;2023-10-09T10:28:20;100266.28;;;17.34;94.85
74613;BME280;63119;51.788;8.824;2023-10-09T10:31:08;100272.59;;;17.33;95.04
74613;BME280;63119;51.788;8.824;2023-10-09T10:36:25;100275.00;;;17.36;95.58
74613;BME280;63119;51.788;8.824;2023-10-09T10:39:10;100264.47;;;17.44;94.92
74613;BME280;63119;51.788;8.824;2023-10-09T10:41:36;100254.44;;;17.46;94.96
74613;BME280;63119;51.788;8.824;2023-10-09T10:44:16;100255.63;;;17.63;94.73
74613;BME280;63119;51.788;8.824;2023-10-09T10:47:04;100248.16;;;17.57;94.54
74613;BME280;63119;51.788;8.824;2023-10-09T10:49:29;100253.63;;;17.65;94.66
74613;BME280;63119;51.788;8.824;2023-10-09T10:52:02;100264.91;;;17.68;93.85
74613;BME280;63119;51.788;8.824;2023-10-09T10:54:40;100256.72;;;17.70;93.80
74613;BME280;63119;51.788;8.824;2023-10-09T10:57:19;100269.41;;;17.77;93.41
74613;BME280;63119;51.788;8.824;2023-10-09T10:59:45;100279.09;;;17.78;93.02
74613;BME280;63119;51.788;8.824;2023-10-09T11:02:11;100273.88;;;17.86;92.58
74613;BME280;63119;51.788;8.824;2023-10-09T11:04:37;100278.97;;;17.80;92.90
74613;BME280;63119;51.788;8.824;2023-10-09T11:07:10;100272.88;;;17.87;93.43
74613;BME280;63119;51.788;8.824;2023-10-09T11:15:30;100262.63;;;17.64;93.84
74613;BME280;63119;51.788;8.824;2023-10-09T11:18:04;100277.28;;;17.69;94.29
74613;BME280;63119;51.788;8.824;2023-10-09T11:20:36;100280.09;;;17.68;94.03
74613;BME280;63119;51.788;8.824;2023-10-09T11:23:03;100282.66;;;17.60;95.40
74613;BME280;63119;51.788;8.824;2023-10-09T11:25:35;100297.00;;;17.59;95.37
74613;BME280;63119;51.788;8.824;2023-10-09T11:28:03;100305.03;;;17.59;94.87
74613;BME280;63119;51.788;8.824;2023-10-09T11:30:48;100325.03;;;17.55;96.25
74613;BME280;63119;51.788;8.824;2023-10-09T11:33:20;100351.38;;;17.59;96.63
74613;BME280;63119;51.788;8.824;2023-10-09T11:35:56;100357.25;;;17.43;97.45
74613;BME280;63119;51.788;8.824;2023-10-09T11:38:25;100344.44;;;17.47;97.90
74613;BME280;63119;51.788;8.824;2023-10-09T11:40:51;100332.19;;;17.44;97.89
74613;BME280;63119;51.788;8.824;2023-10-09T11:43:20;100339.50;;;17.52;97.74
74613;BME280;63119;51.788;8.824;2023-10-09T11:46:11;100343.44;;;17.48;98.27
74613;BME280;63119;51.788;8.824;2023-10-09T11:48:36;100335.16;;;17.41;97.85
74613;BME280;63119;51.788;8.824;2023-10-09T11:51:14;100323.16;;;17.36;98.98
74613;BME280;63119;51.788;8.824;2023-10-09T11:53:44;100320.78;;;17.52;97.31
74613;BME280;63119;51.788;8.824;2023-10-09T11:56:14;100316.13;;;17.44;98.33
74613;BME280;63119;51.788;8.824;2023-10-09T11:58:47;100321.22;;;17.47;98.85
74613;BME280;63119;51.788;8.824;2023-10-09T12:01:15;100320.66;;;17.54;98.17
74613;BME280;63119;51.788;8.824;2023-10-09T12:03:45;100325.47;;;17.60;97.86
74613;BME280;63119;51.788;8.824;2023-10-09T12:06:21;100325.75;;;17.57;98.40
74613;BME280;63119;51.788;8.824;2023-10-09T12:08:55;100323.31;;;17.54;98.03
74613;BME280;63119;51.788;8.824;2023-10-09T12:11:23;100322.59;;;17.52;97.73
74613;BME280;63119;51.788;8.824;2023-10-09T12:13:54;100320.66;;;17.54;98.41
74613;BME280;63119;51.788;8.824;2023-10-09T12:16:23;100312.63;;;17.54;99.11
74613;BME280;63119;51.788;8.824;2023-10-09T12:18:53;100315.88;;;17.57;97.85
74613;BME280;63119;51.788;8.824;2023-10-09T12:21:22;100310.50;;;17.57;97.46
74613;BME280;63119;51.788;8.824;2023-10-09T12:23:48;100307.28;;;17.54;97.59
74613;BME280;63119;51.788;8.824;2023-10-09T12:26:14;100306.28;;;17.55;97.28
74613;BME280;63119;51.788;8.824;2023-10-09T12:28:40;100310.38;;;17.59;96.95
74613;BME280;63119;51.788;8.824;2023-10-09T12:31:05;100300.66;;;17.58;96.27
74613;BME280;63119;51.788;8.824;2023-10-09T12:33:31;100298.28;;;17.55;96.38
74613;BME280;63119;51.788;8.824;2023-10-09T12:35:56;100292.47;;;17.49;96.71
74613;BME280;63119;51.788;8.824;2023-10-09T12:38:29;100288.09;;;17.48;96.44
74613;BME280;63119;51.788;8.824;2023-10-09T12:41:04;100291.06;;;17.45;96.84
74613;BME280;63119;51.788;8.824;2023-10-09T12:43:43;100294.63;;;17.56;97.14
74613;BME280;63119;51.788;8.824;2023-10-09T12:46:08;100289.09;;;17.47;96.93
74613;BME280;63119;51.788;8.824;2023-10-09T12:48:34;100284.16;;;17.43;97.69
74613;BME280;63119;51.788;8.824;2023-10-09T12:51:00;100288.41;;;17.55;96.55
74613;BME280;63119;51.788;8.824;2023-10-09T12:53:31;100297.38;;;17.54;96.47
74613;BME280;63119;51.788;8.824;2023-10-09T12:55:57;100290.38;;;17.53;96.94
74613;BME280;63119;51.788;8.824;2023-10-09T12:58:22;100293.31;;;17.50;96.98
74613;BME280;63119;51.788;8.824;2023-10-09T13:00:51;100287.13;;;17.49;97.32
74613;BME280;63119;51.788;8.824;2023-10-09T13:03:17;100292.03;;;17.54;97.62
74613;BME280;63119;51.788;8.824;2023-10-09T13:05:51;100289.25;;;17.56;97.62
74613;BME280;63119;51.788;8.824;2023-10-09T13:08:25;100294.75;;;17.44;97.52
74613;BME280;63119;51.788;8.824;2023-10-09T13:11:04;100287.53;;;17.45;97.85
74613;BME280;63119;51.788;8.824;2023-10-09T13:13:39;100286.56;;;17.46;97.38
74613;BME280;63119;51.788;8.824;2023-10-09T13:16:18;100292.47;;;17.49;96.95
74613;BME280;63119;51.788;8.824;2023-10-09T13:18:56;100289.38;;;17.44;96.92
74613;BME280;63119;51.788;8.824;2023-10-09T13:21:28;100288.53;;;17.54;97.37
74613;BME280;63119;51.788;8.824;2023-10-09T13:23:59;100294.19;;;17.51;96.78
74613;BME280;63119;51.788;8.824;2023-10-09T13:26:28;100294.72;;;17.54;96.85
74613;BME280;63119;51.788;8.824;2023-10-09T13:28:57;100287.41;;;17.46;97.20